Lapis Arrow — C6VH5 — position and weather

sailwx.info

Track history (hours):
 
Tides and Currents Weather Stations Pressure Air Temp Water Temp Dewpoint Dewpoint Depression Visibility Wind Speed Wind Dir Waves Ship Positions

Lapis Arrow

Last reported at 2014-Jul-11 20:34 UTC. Time now 2014-Jul-25 01:35 UTC.
Position S 13°15' W 038°37'.
Warning: this ship's position is 13 days out of date.

Length 176 m; draft 7.3 m.

Type: Cargo ship. MMSI: 308800800.

Date/timePositionNaut miles runAvg speedWind from/ knotsBaromVisibWave heightAir tempDewpointWater temp
2014-Jul-11 20:34S 13°15' W 038°37'10 9.8
2014-Jul-11 19:33S 13°05' W 038°38'0 0.0
2014-Jul-11 18:33S 13°05' W 038°38'0 0.0
2014-Jul-11 17:33S 13°05' W 038°38'0 0.0
2014-Jul-11 16:33S 13°05' W 038°38'0 0.0
2014-Jul-11 15:33S 13°05' W 038°38'0 0.0
2014-Jul-11 14:30S 13°05' W 038°38'0 0.0
2014-Jul-11 13:33S 13°05' W 038°38'0 0.0
2014-Jul-11 12:33S 13°05' W 038°38'0 0.1
2014-Jul-11 11:33S 13°05' W 038°38'0 0.0
2014-Jul-11 10:33S 13°05' W 038°38'0 0.0
2014-Jul-11 09:32S 13°05' W 038°38'0 0.0
2014-Jul-11 08:32S 13°05' W 038°38'0 0.0
2014-Jul-11 07:32S 13°05' W 038°38'0 0.0
2014-Jul-11 06:32S 13°05' W 038°38'0 0.0
2014-Jul-11 05:32S 13°05' W 038°38'0 0.0
2014-Jul-11 04:30S 13°05' W 038°38'0 0.0
2014-Jul-11 03:33S 13°05' W 038°38'0 0.0
2014-Jul-11 02:33S 13°05' W 038°38'0 0.0
2014-Jul-11 01:33S 13°05' W 038°38'0 0.0
2014-Jul-11 00:30S 13°05' W 038°38'0 0.0
2014-Jul-10 23:33S 13°05' W 038°38'0 0.0
2014-Jul-10 22:33S 13°05' W 038°38'0 0.0
2014-Jul-10 21:33S 13°05' W 038°38'0 0.0
2014-Jul-10 20:33S 13°05' W 038°38'0 0.0
2014-Jul-10 19:33S 13°05' W 038°38'0 0.0
2014-Jul-10 18:33S 13°05' W 038°38'0 0.0
2014-Jul-10 17:33S 13°05' W 038°38'0 0.0
2014-Jul-10 16:33S 13°05' W 038°38'0 0.0
2014-Jul-10 15:33S 13°05' W 038°38'0 0.0
2014-Jul-10 14:30S 13°05' W 038°38'0 0.0
2014-Jul-10 13:33S 13°05' W 038°38'0 0.0
2014-Jul-10 12:33S 13°05' W 038°38'0 0.0
2014-Jul-10 11:33S 13°05' W 038°38'0 0.0
2014-Jul-10 10:33S 13°05' W 038°38'0 0.0
2014-Jul-10 09:33S 13°05' W 038°38'0 0.0
2014-Jul-10 08:33S 13°05' W 038°38'0 0.0
2014-Jul-10 07:33S 13°05' W 038°38'0 0.0
2014-Jul-10 06:33S 13°05' W 038°38'0 0.0
2014-Jul-10 05:33S 13°05' W 038°38'0 0.0
2014-Jul-10 04:32S 13°05' W 038°38'0 0.0
2014-Jul-10 03:32S 13°05' W 038°38'0 0.0
2014-Jul-10 02:32S 13°05' W 038°38'0 0.0
2014-Jul-10 01:32S 13°05' W 038°38'0 0.0
2014-Jul-10 00:29S 13°05' W 038°38'0 0.0
2014-Jul-09 23:33S 13°05' W 038°38'0 0.0
2014-Jul-09 22:32S 13°05' W 038°38'0 0.0
2014-Jul-09 21:32S 13°05' W 038°38'0 0.0
2014-Jul-09 20:32S 13°05' W 038°38'0 0.0
2014-Jul-09 19:31S 13°05' W 038°38'0 0.0
2014-Jul-09 18:34S 13°05' W 038°38'0 0.0
2014-Jul-09 17:19S 13°05' W 038°38'0 0.0
2014-Jul-09 16:34S 13°05' W 038°38'0 0.0
2014-Jul-09 15:34S 13°05' W 038°38'0 0.0
2014-Jul-09 14:32S 13°05' W 038°38'0 0.0
2014-Jul-09 13:32S 13°05' W 038°38'0 0.0
2014-Jul-09 12:32S 13°05' W 038°38'0 0.0
2014-Jul-09 11:32S 13°05' W 038°38'1 0.6
2014-Jul-09 10:33S 13°05' W 038°38'7 6.7
2014-Jul-09 09:33S 13°10' W 038°33'1 1.3
2014-Jul-09 08:33S 13°09' W 038°31'2 1.3
2014-Jul-09 07:21S 13°09' W 038°30'1 1.3
2014-Jul-09 06:32S 13°09' W 038°29'2 2.1
2014-Jul-09 05:33S 13°09' W 038°31'1 1.1
2014-Jul-09 04:30S 13°09' W 038°32'1 1.5
2014-Jul-09 03:33S 13°09' W 038°30'2 1.4
2014-Jul-09 02:26S 13°09' W 038°29'1 1.4
2014-Jul-09 01:33S 13°10' W 038°28'1 1.4
2014-Jul-09 00:30S 13°10' W 038°26'1 1.3
2014-Jul-08 23:33S 13°10' W 038°25'5 5.3
2014-Jul-08 22:33S 13°09' W 038°30'1 1.0
2014-Jul-08 21:33S 13°09' W 038°29'2 1.3
2014-Jul-08 20:24S 13°10' W 038°28'1 1.2
2014-Jul-08 19:31S 13°10' W 038°27'2 2.0
2014-Jul-08 18:33S 13°10' W 038°29'2 2.1
2014-Jul-08 17:33S 13°09' W 038°31'2 1.7
2014-Jul-08 16:33S 13°09' W 038°29'2 1.8
2014-Jul-08 15:33S 13°10' W 038°27'2 1.9
2014-Jul-08 14:33S 13°10' W 038°25'3 2.8
2014-Jul-08 13:33S 13°09' W 038°28'3 2.5
2014-Jul-08 12:32S 13°09' W 038°31'2 1.9
2014-Jul-08 11:33S 13°09' W 038°29'2 1.8
2014-Jul-08 10:33S 13°10' W 038°27'3 3.4
2014-Jul-08 09:32S 13°10' W 038°31'1 1.5
2014-Jul-08 08:33S 13°10' W 038°29'1 1.4
2014-Jul-08 07:30S 13°10' W 038°28'2 1.7
2014-Jul-08 06:03S 13°11' W 038°25'1 1.7
2014-Jul-08 05:15S 13°11' W 038°24'2 1.2
2014-Jul-08 03:31S 13°12' W 038°22'6 6.5
2014-Jul-08 02:34S 13°10' W 038°28'2 2.2
2014-Jul-08 01:33S 13°09' W 038°31'2 1.7
2014-Jul-08 00:33S 13°10' W 038°29'2 1.7
2014-Jul-07 23:25S 13°11' W 038°27'3 1.3
2014-Jul-07 21:27S 13°12' W 038°25'3 1.3
2014-Jul-07 19:13S 13°13' W 038°22'2 3.5
2014-Jul-07 18:31S 13°12' W 038°24'6 5.8
2014-Jul-07 17:34S 13°10' W 038°30'2 1.7
2014-Jul-07 16:33S 13°10' W 038°31'2 1.7
2014-Jul-07 15:32S 13°11' W 038°30'2 1.8
2014-Jul-07 14:32S 13°11' W 038°28'2 1.6
2014-Jul-07 13:29S 13°11' W 038°26'2 1.5
2014-Jul-07 12:24S 13°12' W 038°25'1 1.5
2014-Jul-07 11:32S 13°12' W 038°23'2 1.6
2014-Jul-07 10:25S 13°13' W 038°22'5 5.9
2014-Jul-07 09:33S 13°12' W 038°27'4 4.5
2014-Jul-07 08:34S 13°11' W 038°31'2 1.6
2014-Jul-07 07:33S 13°11' W 038°30'1 0.7
2014-Jul-07 06:33S 13°11' W 038°29'1 0.9
2014-Jul-07 05:33S 13°12' W 038°28'1 1.4
2014-Jul-07 04:32S 13°12' W 038°27'1 1.4
2014-Jul-07 03:33S 13°12' W 038°25'1 1.0
2014-Jul-07 02:32S 13°12' W 038°26'1 0.5
2014-Jul-07 01:21S 13°12' W 038°27'3 1.5
2014-Jul-06 23:25S 13°13' W 038°24'3 1.4
2014-Jul-06 21:07S 13°14' W 038°21'8 1.0
2014-Jul-06 13:05S 13°06' W 038°23'6 0.2
2014-Jul-05 12:25S 13°12' W 038°22'  
2014-Jul-02 17:33S 13°05' W 038°38'0 0.0
2014-Jul-02 16:33S 13°05' W 038°38'0 0.0
2014-Jul-02 15:33S 13°05' W 038°38'0 0.0
2014-Jul-02 14:33S 13°05' W 038°38'0 0.0
2014-Jul-02 13:32S 13°05' W 038°38'0 0.0
2014-Jul-02 12:32S 13°05' W 038°38'0 0.0
2014-Jul-02 11:32S 13°05' W 038°38'0 0.0
2014-Jul-02 10:29S 13°05' W 038°38'0 0.1
2014-Jul-02 09:32S 13°05' W 038°38'0 0.0
2014-Jul-02 08:32S 13°05' W 038°38'0 0.0
2014-Jul-02 07:32S 13°05' W 038°38'0 0.0
2014-Jul-02 06:32S 13°05' W 038°38'0 0.0
2014-Jul-02 05:32S 13°05' W 038°38'0 0.1
2014-Jul-02 04:32S 13°05' W 038°38'0 0.0
2014-Jul-02 03:32S 13°05' W 038°38'0 0.1
2014-Jul-02 02:32S 13°05' W 038°38'0 0.0
2014-Jul-02 01:32S 13°05' W 038°38'0 0.0
2014-Jul-02 00:32S 13°05' W 038°38'0 0.0
2014-Jul-01 23:32S 13°05' W 038°38'0 0.0
2014-Jul-01 22:32S 13°05' W 038°38'0 0.0
2014-Jul-01 21:32S 13°05' W 038°38'  
Track history (hours):
 
Tides and Currents Weather Stations Pressure Air Temp Water Temp Dewpoint Dewpoint Depression Visibility Wind Speed Wind Dir Waves Ship Positions

Lapis Arrow

Last reported at 2014-Jul-11 20:34 UTC. Time now 2014-Jul-25 01:35 UTC.
Position S 13°15' W 038°37'.
Warning: this ship's position is 13 days out of date.

Length 176 m; draft 7.3 m.

Type: Cargo ship. MMSI: 308800800.

Date/timePositionNaut miles runAvg speedWind from/ knotsBaromVisibWave heightAir tempDewpointWater temp
2014-Jul-11 20:34S 13°15' W 038°37'10 9.8
2014-Jul-11 19:33S 13°05' W 038°38'0 0.0
2014-Jul-11 18:33S 13°05' W 038°38'0 0.0
2014-Jul-11 17:33S 13°05' W 038°38'0 0.0
2014-Jul-11 16:33S 13°05' W 038°38'0 0.0
2014-Jul-11 15:33S 13°05' W 038°38'0 0.0
2014-Jul-11 14:30S 13°05' W 038°38'0 0.0
2014-Jul-11 13:33S 13°05' W 038°38'0 0.0
2014-Jul-11 12:33S 13°05' W 038°38'0 0.1
2014-Jul-11 11:33S 13°05' W 038°38'0 0.0
2014-Jul-11 10:33S 13°05' W 038°38'0 0.0
2014-Jul-11 09:32S 13°05' W 038°38'0 0.0
2014-Jul-11 08:32S 13°05' W 038°38'0 0.0
2014-Jul-11 07:32S 13°05' W 038°38'0 0.0
2014-Jul-11 06:32S 13°05' W 038°38'0 0.0
2014-Jul-11 05:32S 13°05' W 038°38'0 0.0
2014-Jul-11 04:30S 13°05' W 038°38'0 0.0
2014-Jul-11 03:33S 13°05' W 038°38'0 0.0
2014-Jul-11 02:33S 13°05' W 038°38'0 0.0
2014-Jul-11 01:33S 13°05' W 038°38'0 0.0
2014-Jul-11 00:30S 13°05' W 038°38'0 0.0
2014-Jul-10 23:33S 13°05' W 038°38'0 0.0
2014-Jul-10 22:33S 13°05' W 038°38'0 0.0
2014-Jul-10 21:33S 13°05' W 038°38'0 0.0
2014-Jul-10 20:33S 13°05' W 038°38'0 0.0
2014-Jul-10 19:33S 13°05' W 038°38'0 0.0
2014-Jul-10 18:33S 13°05' W 038°38'0 0.0
2014-Jul-10 17:33S 13°05' W 038°38'0 0.0
2014-Jul-10 16:33S 13°05' W 038°38'0 0.0
2014-Jul-10 15:33S 13°05' W 038°38'0 0.0
2014-Jul-10 14:30S 13°05' W 038°38'0 0.0
2014-Jul-10 13:33S 13°05' W 038°38'0 0.0
2014-Jul-10 12:33S 13°05' W 038°38'0 0.0
2014-Jul-10 11:33S 13°05' W 038°38'0 0.0
2014-Jul-10 10:33S 13°05' W 038°38'0 0.0
2014-Jul-10 09:33S 13°05' W 038°38'0 0.0
2014-Jul-10 08:33S 13°05' W 038°38'0 0.0
2014-Jul-10 07:33S 13°05' W 038°38'0 0.0
2014-Jul-10 06:33S 13°05' W 038°38'0 0.0
2014-Jul-10 05:33S 13°05' W 038°38'0 0.0
2014-Jul-10 04:32S 13°05' W 038°38'0 0.0
2014-Jul-10 03:32S 13°05' W 038°38'0 0.0
2014-Jul-10 02:32S 13°05' W 038°38'0 0.0
2014-Jul-10 01:32S 13°05' W 038°38'0 0.0
2014-Jul-10 00:29S 13°05' W 038°38'0 0.0
2014-Jul-09 23:33S 13°05' W 038°38'0 0.0
2014-Jul-09 22:32S 13°05' W 038°38'0 0.0
2014-Jul-09 21:32S 13°05' W 038°38'0 0.0
2014-Jul-09 20:32S 13°05' W 038°38'0 0.0
2014-Jul-09 19:31S 13°05' W 038°38'0 0.0
2014-Jul-09 18:34S 13°05' W 038°38'0 0.0
2014-Jul-09 17:19S 13°05' W 038°38'0 0.0
2014-Jul-09 16:34S 13°05' W 038°38'0 0.0
2014-Jul-09 15:34S 13°05' W 038°38'0 0.0
2014-Jul-09 14:32S 13°05' W 038°38'0 0.0
2014-Jul-09 13:32S 13°05' W 038°38'0 0.0
2014-Jul-09 12:32S 13°05' W 038°38'0 0.0
2014-Jul-09 11:32S 13°05' W 038°38'1 0.6
2014-Jul-09 10:33S 13°05' W 038°38'7 6.7
2014-Jul-09 09:33S 13°10' W 038°33'1 1.3
2014-Jul-09 08:33S 13°09' W 038°31'2 1.3
2014-Jul-09 07:21S 13°09' W 038°30'1 1.3
2014-Jul-09 06:32S 13°09' W 038°29'2 2.1
2014-Jul-09 05:33S 13°09' W 038°31'1 1.1
2014-Jul-09 04:30S 13°09' W 038°32'1 1.5
2014-Jul-09 03:33S 13°09' W 038°30'2 1.4
2014-Jul-09 02:26S 13°09' W 038°29'1 1.4
2014-Jul-09 01:33S 13°10' W 038°28'1 1.4
2014-Jul-09 00:30S 13°10' W 038°26'1 1.3
2014-Jul-08 23:33S 13°10' W 038°25'5 5.3
2014-Jul-08 22:33S 13°09' W 038°30'1 1.0
2014-Jul-08 21:33S 13°09' W 038°29'2 1.3
2014-Jul-08 20:24S 13°10' W 038°28'1 1.2
2014-Jul-08 19:31S 13°10' W 038°27'2 2.0
2014-Jul-08 18:33S 13°10' W 038°29'2 2.1
2014-Jul-08 17:33S 13°09' W 038°31'2 1.7
2014-Jul-08 16:33S 13°09' W 038°29'2 1.8
2014-Jul-08 15:33S 13°10' W 038°27'2 1.9
2014-Jul-08 14:33S 13°10' W 038°25'3 2.8
2014-Jul-08 13:33S 13°09' W 038°28'3 2.5
2014-Jul-08 12:32S 13°09' W 038°31'2 1.9
2014-Jul-08 11:33S 13°09' W 038°29'2 1.8
2014-Jul-08 10:33S 13°10' W 038°27'3 3.4
2014-Jul-08 09:32S 13°10' W 038°31'1 1.5
2014-Jul-08 08:33S 13°10' W 038°29'1 1.4
2014-Jul-08 07:30S 13°10' W 038°28'2 1.7
2014-Jul-08 06:03S 13°11' W 038°25'1 1.7
2014-Jul-08 05:15S 13°11' W 038°24'2 1.2
2014-Jul-08 03:31S 13°12' W 038°22'6 6.5
2014-Jul-08 02:34S 13°10' W 038°28'2 2.2
2014-Jul-08 01:33S 13°09' W 038°31'2 1.7
2014-Jul-08 00:33S 13°10' W 038°29'2 1.7
2014-Jul-07 23:25S 13°11' W 038°27'3 1.3
2014-Jul-07 21:27S 13°12' W 038°25'3 1.3
2014-Jul-07 19:13S 13°13' W 038°22'2 3.5
2014-Jul-07 18:31S 13°12' W 038°24'6 5.8
2014-Jul-07 17:34S 13°10' W 038°30'2 1.7
2014-Jul-07 16:33S 13°10' W 038°31'2 1.7
2014-Jul-07 15:32S 13°11' W 038°30'2 1.8
2014-Jul-07 14:32S 13°11' W 038°28'2 1.6
2014-Jul-07 13:29S 13°11' W 038°26'2 1.5
2014-Jul-07 12:24S 13°12' W 038°25'1 1.5
2014-Jul-07 11:32S 13°12' W 038°23'2 1.6
2014-Jul-07 10:25S 13°13' W 038°22'5 5.9
2014-Jul-07 09:33S 13°12' W 038°27'4 4.5
2014-Jul-07 08:34S 13°11' W 038°31'2 1.6
2014-Jul-07 07:33S 13°11' W 038°30'1 0.7
2014-Jul-07 06:33S 13°11' W 038°29'1 0.9
2014-Jul-07 05:33S 13°12' W 038°28'1 1.4
2014-Jul-07 04:32S 13°12' W 038°27'1 1.4
2014-Jul-07 03:33S 13°12' W 038°25'1 1.0
2014-Jul-07 02:32S 13°12' W 038°26'1 0.5
2014-Jul-07 01:21S 13°12' W 038°27'3 1.5
2014-Jul-06 23:25S 13°13' W 038°24'3 1.4
2014-Jul-06 21:07S 13°14' W 038°21'8 1.0
2014-Jul-06 13:05S 13°06' W 038°23'6 0.2
2014-Jul-05 12:25S 13°12' W 038°22'  
2014-Jul-02 17:33S 13°05' W 038°38'0 0.0
2014-Jul-02 16:33S 13°05' W 038°38'0 0.0
2014-Jul-02 15:33S 13°05' W 038°38'0 0.0
2014-Jul-02 14:33S 13°05' W 038°38'0 0.0
2014-Jul-02 13:32S 13°05' W 038°38'0 0.0
2014-Jul-02 12:32S 13°05' W 038°38'0 0.0
2014-Jul-02 11:32S 13°05' W 038°38'0 0.0
2014-Jul-02 10:29S 13°05' W 038°38'0 0.1
2014-Jul-02 09:32S 13°05' W 038°38'0 0.0
2014-Jul-02 08:32S 13°05' W 038°38'0 0.0
2014-Jul-02 07:32S 13°05' W 038°38'0 0.0
2014-Jul-02 06:32S 13°05' W 038°38'0 0.0
2014-Jul-02 05:32S 13°05' W 038°38'0 0.1
2014-Jul-02 04:32S 13°05' W 038°38'0 0.0
2014-Jul-02 03:32S 13°05' W 038°38'0 0.1
2014-Jul-02 02:32S 13°05' W 038°38'0 0.0
2014-Jul-02 01:32S 13°05' W 038°38'0 0.0
2014-Jul-02 00:32S 13°05' W 038°38'0 0.0
2014-Jul-01 23:32S 13°05' W 038°38'0 0.0
2014-Jul-01 22:32S 13°05' W 038°38'0 0.0
2014-Jul-01 21:32S 13°05' W 038°38'  

Dump ship's entire track history